Time;durP1;ratioP1;P1;durP2;ratioP2;P2;SDS_P1;SDS_P2;PMS_P1;PMS_P2;Temp;Humidity;BMP_temperature;BMP_pressure;BME280_temperature;BME280_humidity;BME280_pressure;Samples;Min_cycle;Max_cycle;Signal;HPM_P1;HPM_P2
2022/03/28 00:01:54;;;;;;;0.00;0.00;;;7.20;99.90;;;;;;5029756;28;20036;-65
2022/03/28 00:04:20;;;;;;;0.00;0.00;;;7.10;99.90;;;;;;5029171;28;20037;-65
2022/03/28 00:06:45;;;;;;;0.00;0.00;;;7.10;99.90;;;;;;5030502;28;20137;-65
2022/03/28 00:09:12;;;;;;;0.00;0.00;;;7.30;99.90;;;;;;5044531;28;20110;-65
2022/03/28 00:11:37;;;;;;;0.00;0.00;;;7.10;99.90;;;;;;5009215;28;20480;-66
2022/03/28 00:14:03;;;;;;;0.00;0.00;;;7.00;99.90;;;;;;5044318;28;20076;-65
2022/03/28 00:16:29;;;;;;;0.00;0.00;;;7.10;99.90;;;;;;5044329;28;20436;-65
2022/03/28 00:18:55;;;;;;;0.00;0.00;;;7.10;99.90;;;;;;5043517;28;20520;-65
2022/03/28 00:21:20;;;;;;;0.00;0.00;;;7.10;99.90;;;;;;5042586;28;20056;-65
2022/03/28 00:23:46;;;;;;;0.00;0.00;;;7.00;99.90;;;;;;5043667;28;20452;-65
2022/03/28 00:26:12;;;;;;;0.00;0.00;;;7.00;99.90;;;;;;5026055;28;20459;-65
2022/03/28 00:28:38;;;;;;;0.00;0.00;;;7.00;99.90;;;;;;5025902;28;20082;-66
2022/03/28 00:31:04;;;;;;;0.00;0.00;;;7.00;99.90;;;;;;5025183;28;20074;-65
2022/03/28 00:33:30;;;;;;;0.00;0.00;;;7.00;99.90;;;;;;5043865;28;20175;-65
2022/03/28 00:35:56;;;;;;;0.00;0.00;;;7.00;99.90;;;;;;5042570;28;20132;-65
2022/03/28 00:38:22;;;;;;;0.00;0.00;;;7.00;99.90;;;;;;5043089;28;20044;-66
2022/03/28 00:40:48;;;;;;;0.00;0.00;;;7.00;99.90;;;;;;5043219;28;20045;-65
2022/03/28 00:43:14;;;;;;;0.00;0.00;;;7.00;99.90;;;;;;5043786;28;20044;-66
2022/03/28 00:45:41;;;;;;;0.00;0.00;;;7.00;99.90;;;;;;5043303;28;20037;-63
2022/03/28 00:48:09;;;;;;;0.00;0.00;;;6.90;99.90;;;;;;5043222;28;20529;-65
2022/03/28 00:50:35;;;;;;;0.00;0.00;;;7.00;99.90;;;;;;5043414;28;20033;-66
2022/03/28 00:53:02;;;;;;;0.00;0.00;;;7.00;99.90;;;;;;5043528;28;20049;-65
2022/03/28 00:55:28;;;;;;;0.00;0.00;;;6.90;99.90;;;;;;5042969;28;20515;-65
2022/03/28 00:57:53;;;;;;;0.00;0.00;;;7.00;99.90;;;;;;5042966;28;20136;-66
2022/03/28 01:00:19;;;;;;;0.00;0.00;;;6.90;99.90;;;;;;5025387;28;20049;-65
2022/03/28 01:02:46;;;;;;;0.00;0.00;;;6.90;99.90;;;;;;5054084;28;20725;-65
2022/03/28 01:05:12;;;;;;;0.00;0.00;;;6.90;99.90;;;;;;5054643;22;20083;-66
2022/03/28 01:07:39;;;;;;;0.00;0.00;;;6.90;99.90;;;;;;5058839;28;20387;-65
2022/03/28 01:10:06;;;;;;;0.00;0.00;;;7.00;99.90;;;;;;5045484;28;20118;-66
2022/03/28 01:12:32;;;;;;;0.00;0.00;;;6.90;99.90;;;;;;5046615;28;20041;-65
2022/03/28 01:14:59;;;;;;;0.00;0.00;;;6.90;99.90;;;;;;5042735;28;20482;-65
2022/03/28 01:20:10;;;;;;;0.00;0.00;;;6.80;99.90;;;;;;5042590;28;20049;-65
2022/03/28 01:22:36;;;;;;;0.00;0.00;;;6.80;99.90;;;;;;5042415;28;20052;-65
2022/03/28 01:25:05;;;;;;;0.00;0.00;;;6.80;99.90;;;;;;5043121;28;20047;-66
2022/03/28 01:27:32;;;;;;;0.00;0.00;;;6.80;99.90;;;;;;5042809;28;20033;-65
2022/03/28 01:29:57;;;;;;;0.00;0.00;;;6.80;99.90;;;;;;5042401;28;20086;-65
2022/03/28 01:32:23;;;;;;;0.00;0.00;;;6.90;99.90;;;;;;5042867;28;20037;-65
2022/03/28 01:34:49;;;;;;;0.00;0.00;;;7.60;99.90;;;;;;5042394;28;20036;-65
2022/03/28 01:37:15;;;;;;;0.00;0.00;;;6.80;99.90;;;;;;5041557;28;20049;-65
2022/03/28 01:39:40;;;;;;;0.00;0.00;;;6.80;99.90;;;;;;5042505;28;20076;-64
2022/03/28 01:42:06;;;;;;;0.00;0.00;;;6.80;99.90;;;;;;5042360;28;20360;-65
2022/03/28 01:44:32;;;;;;;0.00;0.00;;;6.80;99.90;;;;;;5041991;28;20045;-65
2022/03/28 01:46:58;;;;;;;0.00;0.00;;;6.70;99.90;;;;;;5041668;28;20072;-64
2022/03/28 01:49:24;;;;;;;0.00;0.00;;;6.70;99.90;;;;;;5042633;28;20475;-65
2022/03/28 01:51:50;;;;;;;0.00;0.00;;;6.60;99.90;;;;;;5041525;28;20037;-65
2022/03/28 01:54:17;;;;;;;0.00;0.00;;;6.60;99.90;;;;;;5041997;28;20033;-65
2022/03/28 01:56:43;;;;;;;0.00;0.00;;;6.50;99.90;;;;;;5042213;28;20112;-62
2022/03/28 01:59:10;;;;;;;0.00;0.00;;;6.50;99.90;;;;;;5042525;28;20045;-64
2022/03/28 02:01:37;;;;;;;0.00;0.00;;;6.60;99.90;;;;;;5045814;28;20044;-65
2022/03/28 02:04:03;;;;;;;0.00;0.00;;;7.60;99.90;;;;;;5049690;28;20047;-64
2022/03/28 02:06:29;;;;;;;0.00;0.00;;;6.60;99.90;;;;;;5041386;28;20072;-65
2022/03/28 02:08:55;;;;;;;0.00;0.00;;;7.70;99.90;;;;;;5041972;28;20344;-65
2022/03/28 02:11:21;;;;;;;0.00;0.00;;;6.60;99.90;;;;;;5024003;28;20056;-65
2022/03/28 02:13:47;;;;;;;0.00;0.00;;;6.60;99.90;;;;;;5024140;28;20757;-66
2022/03/28 02:16:13;;;;;;;0.00;0.00;;;6.50;99.90;;;;;;5042420;28;20048;-65
2022/03/28 02:18:39;;;;;;;0.00;0.00;;;6.50;99.90;;;;;;5042084;28;20072;-65
2022/03/28 02:21:05;;;;;;;0.00;0.00;;;6.50;99.90;;;;;;5041089;28;20466;-66
2022/03/28 02:23:31;;;;;;;0.00;0.00;;;6.50;99.90;;;;;;5024576;28;20074;-65
2022/03/28 02:25:57;;;;;;;0.00;0.00;;;6.50;99.90;;;;;;5041514;28;20048;-65
2022/03/28 02:28:23;;;;;;;0.00;0.00;;;6.60;99.90;;;;;;5041965;28;20041;-65
2022/03/28 02:30:48;;;;;;;0.00;0.00;;;6.60;99.90;;;;;;5041351;28;20068;-65
2022/03/28 02:33:14;;;;;;;0.00;0.00;;;6.60;99.90;;;;;;5042263;28;20099;-64
2022/03/28 02:35:41;;;;;;;0.00;0.00;;;6.60;99.90;;;;;;5040972;28;20045;-64
2022/03/28 02:38:07;;;;;;;0.00;0.00;;;7.30;99.90;;;;;;5023723;28;20052;-65
2022/03/28 02:40:34;;;;;;;0.00;0.00;;;6.60;99.90;;;;;;5042369;28;20083;-65
2022/03/28 02:43:00;;;;;;;0.00;0.00;;;6.70;99.90;;;;;;5041665;28;20045;-65
2022/03/28 02:45:28;;;;;;;0.00;0.00;;;6.70;99.90;;;;;;5042361;28;20111;-65
2022/03/28 02:47:54;;;;;;;0.00;0.00;;;6.70;99.90;;;;;;5040797;28;20128;-65
2022/03/28 02:50:19;;;;;;;0.00;0.00;;;6.70;99.90;;;;;;5041313;28;20120;-65
2022/03/28 02:52:45;;;;;;;0.00;0.00;;;6.70;99.90;;;;;;5041810;28;20087;-64
2022/03/28 02:55:11;;;;;;;0.00;0.00;;;6.60;99.90;;;;;;5025397;28;20074;-65
2022/03/28 02:57:37;;;;;;;0.00;0.00;;;6.60;99.90;;;;;;5045476;28;20580;-65
2022/03/28 03:00:10;;;;;;;0.00;0.00;;;6.70;99.90;;;;;;5046103;28;20551;-64
2022/03/28 03:02:38;;;;;;;0.00;0.00;;;6.70;99.90;;;;;;5056581;28;20036;-65
2022/03/28 03:05:05;;;;;;;0.00;0.00;;;6.70;99.90;;;;;;5044694;28;20060;-65
2022/03/28 03:07:31;;;;;;;0.00;0.00;;;6.60;99.90;;;;;;5045842;28;20107;-65
2022/03/28 03:09:56;;;;;;;0.00;0.00;;;6.60;99.90;;;;;;5027087;28;20069;-65
2022/03/28 03:12:22;;;;;;;0.00;0.00;;;6.60;99.90;;;;;;5045024;28;20179;-65
2022/03/28 03:14:48;;;;;;;0.00;0.00;;;6.60;99.90;;;;;;5045040;28;20045;-65
2022/03/28 03:17:14;;;;;;;0.00;0.00;;;6.60;99.90;;;;;;5045439;28;20605;-65
2022/03/28 03:19:40;;;;;;;0.00;0.00;;;6.60;99.90;;;;;;5045176;28;20072;-65
2022/03/28 03:22:07;;;;;;;0.00;0.00;;;6.70;99.90;;;;;;5044120;28;20120;-65
2022/03/28 03:24:33;;;;;;;0.00;0.00;;;6.70;99.90;;;;;;5045636;28;20443;-64
2022/03/28 03:26:58;;;;;;;0.00;0.00;;;6.70;99.90;;;;;;5044994;28;20130;-65
2022/03/28 03:29:24;;;;;;;0.00;0.00;;;6.60;99.90;;;;;;5026730;28;20454;-65
2022/03/28 03:31:50;;;;;;;0.00;0.00;;;6.60;99.90;;;;;;5044860;28;20045;-65
2022/03/28 03:34:15;;;;;;;0.00;0.00;;;6.60;99.90;;;;;;5045193;28;20043;-65
2022/03/28 03:36:41;;;;;;;0.00;0.00;;;6.60;99.90;;;;;;5044357;28;20503;-65
2022/03/28 03:39:06;;;;;;;0.00;0.00;;;6.70;99.90;;;;;;5042934;28;20683;-66
2022/03/28 03:41:32;;;;;;;0.00;0.00;;;6.70;99.90;;;;;;5045619;28;20044;-65
2022/03/28 03:43:58;;;;;;;0.00;0.00;;;6.60;99.90;;;;;;5044653;28;20122;-66
2022/03/28 03:46:24;;;;;;;0.00;0.00;;;6.60;99.90;;;;;;5045082;28;20047;-65
2022/03/28 03:48:49;;;;;;;0.00;0.00;;;6.60;99.90;;;;;;5044043;28;20116;-64
2022/03/28 03:51:15;;;;;;;0.00;0.00;;;6.50;99.90;;;;;;5044113;28;20037;-64
2022/03/28 03:53:41;;;;;;;0.00;0.00;;;6.40;99.90;;;;;;5044436;28;20037;-65
2022/03/28 03:56:06;;;;;;;0.00;0.00;;;6.50;99.90;;;;;;5026210;28;20393;-65
2022/03/28 03:58:32;;;;;;;0.00;0.00;;;6.40;99.90;;;;;;5044747;28;20045;-65
2022/03/28 04:00:57;;;;;;;0.00;0.00;;;6.40;99.90;;;;;;5044099;28;20037;-65
2022/03/28 04:03:23;;;;;;;0.00;0.00;;;6.50;99.90;;;;;;5053246;28;20643;-66
2022/03/28 04:05:49;;;;;;;0.00;0.00;;;6.50;99.90;;;;;;5042024;28;20072;-65
2022/03/28 04:08:14;;;;;;;0.00;0.00;;;6.40;99.90;;;;;;5043937;28;20487;-65
2022/03/28 04:10:42;;;;;;;0.00;0.00;;;6.40;99.90;;;;;;5044242;28;20399;-64
2022/03/28 04:13:08;;;;;;;0.00;0.00;;;6.40;99.90;;;;;;5044400;28;20049;-65
2022/03/28 04:15:34;;;;;;;0.00;0.00;;;6.40;99.90;;;;;;5043054;28;20096;-64
2022/03/28 04:17:59;;;;;;;0.00;0.00;;;6.40;99.90;;;;;;5026241;28;20053;-65
2022/03/28 04:20:27;;;;;;;0.00;0.00;;;6.40;99.90;;;;;;5026017;28;20125;-65
2022/03/28 04:22:53;;;;;;;0.00;0.00;;;6.50;99.90;;;;;;5025562;28;20064;-65
2022/03/28 04:25:19;;;;;;;0.00;0.00;;;6.30;99.90;;;;;;5042968;28;20037;-65
2022/03/28 04:27:44;;;;;;;0.00;0.00;;;6.40;99.90;;;;;;5043865;28;20133;-65
2022/03/28 04:30:12;;;;;;;0.00;0.00;;;6.40;99.90;;;;;;5044002;28;20766;-65
2022/03/28 04:32:38;;;;;;;0.00;0.00;;;6.30;99.90;;;;;;5043390;28;20037;-65
2022/03/28 04:35:06;;;;;;;0.00;0.00;;;6.30;99.90;;;;;;5043350;28;20041;-65
2022/03/28 04:37:33;;;;;;;0.00;0.00;;;6.30;99.90;;;;;;5043938;28;20068;-65
2022/03/28 04:39:59;;;;;;;0.00;0.00;;;6.30;99.90;;;;;;5043050;28;20052;-65
2022/03/28 04:42:25;;;;;;;0.00;0.00;;;6.30;99.90;;;;;;5043935;28;20330;-65
2022/03/28 04:44:50;;;;;;;0.00;0.00;;;6.30;99.90;;;;;;5042220;28;20053;-65
2022/03/28 04:47:16;;;;;;;0.00;0.00;;;6.20;99.90;;;;;;5044003;28;20045;-65
2022/03/28 04:49:41;;;;;;;0.00;0.00;;;6.20;99.90;;;;;;5042054;28;20049;-65
2022/03/28 04:52:07;;;;;;;0.00;0.00;;;6.20;99.90;;;;;;5043534;28;20037;-65
2022/03/28 04:54:33;;;;;;;0.00;0.00;;;6.10;99.90;;;;;;5044054;28;20136;-64
2022/03/28 04:56:59;;;;;;;0.00;0.00;;;6.20;99.90;;;;;;5043290;28;20081;-67
2022/03/28 04:59:24;;;;;;;0.00;0.00;;;6.10;99.90;;;;;;5024964;28;20059;-67
2022/03/28 05:01:50;;;;;;;0.00;0.00;;;6.10;99.90;;;;;;5048779;28;20040;-66
2022/03/28 05:04:16;;;;;;;0.00;0.00;;;6.10;99.90;;;;;;5048987;28;20044;-67
2022/03/28 05:06:41;;;;;;;0.00;0.00;;;6.00;99.90;;;;;;5039988;28;20045;-67
2022/03/28 05:09:07;;;;;;;0.00;0.00;;;6.00;99.90;;;;;;5043421;28;20048;-66
2022/03/28 05:11:33;;;;;;;0.00;0.00;;;6.10;99.90;;;;;;5043438;28;20033;-66
2022/03/28 05:14:00;;;;;;;0.00;0.00;;;6.20;99.90;;;;;;5042822;28;20459;-64
2022/03/28 05:16:26;;;;;;;0.00;0.00;;;6.00;99.90;;;;;;5024724;28;20515;-66
2022/03/28 05:18:51;;;;;;;0.00;0.00;;;6.00;99.90;;;;;;5042464;28;20043;-65
2022/03/28 05:21:17;;;;;;;0.00;0.00;;;6.10;99.90;;;;;;5041144;28;20047;-65
2022/03/28 05:23:43;;;;;;;0.00;0.00;;;5.90;99.90;;;;;;5042948;28;20080;-65
2022/03/28 05:26:09;;;;;;;0.00;0.00;;;6.00;99.90;;;;;;5042596;28;20037;-65
2022/03/28 05:28:34;;;;;;;0.00;0.00;;;6.00;99.90;;;;;;5042931;28;20407;-61
2022/03/28 05:31:00;;;;;;;0.00;0.00;;;6.00;99.90;;;;;;5042395;28;20167;-65
2022/03/28 05:33:26;;;;;;;0.00;0.00;;;6.00;99.90;;;;;;5041963;28;20037;-65
2022/03/28 05:35:52;;;;;;;0.00;0.00;;;6.00;99.90;;;;;;5041543;28;20044;-65
2022/03/28 05:38:18;;;;;;;0.00;0.00;;;6.00;99.90;;;;;;5025002;28;20044;-65
2022/03/28 05:40:44;;;;;;;0.00;0.00;;;6.00;99.90;;;;;;5040957;28;20132;-65
2022/03/28 05:43:10;;;;;;;0.00;0.00;;;5.90;99.90;;;;;;5042171;28;20182;-66
2022/03/28 05:45:36;;;;;;;0.00;0.00;;;5.90;99.90;;;;;;5042506;28;20142;-66
2022/03/28 05:48:03;;;;;;;0.00;0.00;;;5.90;99.90;;;;;;5042516;28;20490;-65
2022/03/28 05:50:29;;;;;;;0.00;0.00;;;5.90;99.90;;;;;;5041734;28;20444;-66
2022/03/28 05:52:54;;;;;;;0.00;0.00;;;5.90;99.90;;;;;;5042117;28;20632;-65
2022/03/28 05:55:21;;;;;;;0.00;0.00;;;5.90;99.90;;;;;;5042516;28;20041;-66
2022/03/28 05:57:47;;;;;;;0.05;0.05;;;5.90;99.90;;;;;;5040760;28;20098;-65
2022/03/28 06:00:14;;;;;;;0.00;0.00;;;5.90;99.90;;;;;;5041750;28;20052;-66
2022/03/28 06:02:43;;;;;;;0.00;0.00;;;5.90;99.90;;;;;;5048541;28;20049;-65
2022/03/28 06:05:10;;;;;;;0.00;0.00;;;5.90;99.90;;;;;;5061227;28;20057;-65
2022/03/28 06:07:36;;;;;;;0.00;0.00;;;5.80;99.90;;;;;;5061625;28;20084;-66
2022/03/28 06:10:03;;;;;;;0.00;0.00;;;5.40;99.90;;;;;;5062492;28;20095;-65
2022/03/28 06:12:29;;;;;;;0.00;0.00;;;5.80;99.90;;;;;;5062337;28;20114;-65
2022/03/28 06:14:55;;;;;;;0.00;0.00;;;5.80;99.90;;;;;;5061719;28;20045;-65
2022/03/28 06:17:26;;;;;;;0.00;0.00;;;5.90;99.90;;;;;;5061851;28;20107;-64
2022/03/28 06:19:52;;;;;;;0.00;0.00;;;5.70;99.90;;;;;;5061160;28;20750;-65
2022/03/28 06:22:18;;;;;;;0.00;0.00;;;5.80;99.90;;;;;;5062192;28;20045;-67
2022/03/28 06:24:44;;;;;;;0.00;0.00;;;5.80;99.90;;;;;;5061005;28;20406;-65
2022/03/28 06:27:10;;;;;;;0.00;0.00;;;5.80;99.90;;;;;;5062114;28;20051;-65
2022/03/28 06:29:36;;;;;;;0.00;0.00;;;5.80;99.90;;;;;;5044803;28;20033;-65
2022/03/28 06:32:03;;;;;;;0.00;0.00;;;5.90;99.90;;;;;;5066431;28;20093;-65
2022/03/28 06:34:29;;;;;;;0.00;0.00;;;5.80;99.90;;;;;;5064772;28;20132;-65
2022/03/28 06:36:54;;;;;;;0.00;0.00;;;5.80;99.90;;;;;;5047947;28;20286;-65
2022/03/28 06:39:20;;;;;;;0.00;0.00;;;5.70;99.90;;;;;;5066398;28;20041;-66
2022/03/28 06:41:45;;;;;;;0.00;0.00;;;5.90;99.90;;;;;;5065462;28;20039;-66
2022/03/28 06:44:14;;;;;;;0.00;0.00;;;5.80;99.90;;;;;;5065545;28;20048;-66
2022/03/28 06:46:42;;;;;;;0.00;0.00;;;5.80;99.90;;;;;;5065678;28;20115;-65
2022/03/28 06:49:08;;;;;;;0.00;0.00;;;5.80;99.90;;;;;;5047923;28;20044;-66
2022/03/28 06:51:34;;;;;;;0.00;0.00;;;5.90;99.90;;;;;;5064973;28;20051;-66
2022/03/28 06:54:03;;;;;;;0.00;0.00;;;5.90;99.90;;;;;;5065749;28;20048;-66
2022/03/28 06:56:29;;;;;;;0.00;0.00;;;5.90;99.90;;;;;;5065665;28;20045;-66
2022/03/28 06:58:55;;;;;;;0.00;0.00;;;6.00;99.90;;;;;;5064658;28;20044;-67
2022/03/28 07:01:20;;;;;;;0.00;0.00;;;6.10;99.90;;;;;;5060320;28;20033;-66
2022/03/28 07:03:46;;;;;;;0.00;0.00;;;5.90;99.90;;;;;;5054157;28;20111;-66
2022/03/28 07:06:12;;;;;;;0.00;0.00;;;5.90;99.90;;;;;;5044379;28;20160;-66
2022/03/28 07:08:37;;;;;;;0.00;0.00;;;5.80;99.90;;;;;;5043609;28;20136;-66
2022/03/28 07:11:03;;;;;;;0.00;0.00;;;5.80;99.90;;;;;;5045453;28;20054;-66
2022/03/28 07:13:30;;;;;;;0.00;0.00;;;5.80;99.90;;;;;;5045316;28;20091;-66
2022/03/28 07:15:55;;;;;;;0.00;0.00;;;5.80;99.90;;;;;;5044717;28;20075;-66
2022/03/28 07:18:22;;;;;;;0.00;0.00;;;5.80;99.90;;;;;;5044865;28;20086;-66
2022/03/28 07:20:48;;;;;;;0.00;0.00;;;5.70;99.90;;;;;;5026257;28;20049;-66
2022/03/28 07:23:14;;;;;;;0.00;0.00;;;5.70;99.90;;;;;;5045402;28;20094;-66
2022/03/28 07:25:40;;;;;;;0.00;0.00;;;5.80;99.90;;;;;;5044448;28;20368;-66
2022/03/28 07:28:13;;;;;;;0.00;0.00;;;5.90;99.90;;;;;;5045003;28;20183;-65
2022/03/28 07:30:40;;;;;;;0.00;0.00;;;5.90;99.90;;;;;;5044885;28;20067;-66
2022/03/28 07:33:06;;;;;;;0.00;0.00;;;5.90;99.90;;;;;;5045051;28;20060;-66
2022/03/28 07:35:35;;;;;;;0.00;0.00;;;5.80;99.90;;;;;;5039006;28;20048;-66
2022/03/28 07:38:01;;;;;;;0.00;0.00;;;6.00;99.90;;;;;;5064928;28;20423;-66
2022/03/28 07:40:28;;;;;;;0.00;0.00;;;6.00;99.90;;;;;;5064496;28;20075;-66
2022/03/28 07:42:53;;;;;;;0.00;0.00;;;6.00;99.90;;;;;;5062781;28;20036;-66
2022/03/28 07:45:20;;;;;;;0.00;0.00;;;6.00;99.90;;;;;;5064708;28;20052;-66
2022/03/28 07:47:46;;;;;;;0.00;0.00;;;6.10;99.90;;;;;;5046731;28;20044;-67
2022/03/28 07:50:12;;;;;;;0.00;0.00;;;6.20;99.90;;;;;;5063929;28;20048;-66
2022/03/28 07:52:39;;;;;;;0.00;0.00;;;6.30;99.90;;;;;;5064154;28;20040;-65
2022/03/28 07:55:06;;;;;;;0.00;0.00;;;6.20;99.90;;;;;;5064545;28;20032;-66
2022/03/28 07:57:33;;;;;;;0.00;0.00;;;6.30;99.90;;;;;;5064635;28;20086;-65
2022/03/28 07:59:58;;;;;;;0.00;0.00;;;6.30;99.90;;;;;;5063695;28;20166;-66
2022/03/28 08:02:24;;;;;;;0.00;0.00;;;6.40;99.90;;;;;;5058067;28;20786;-66
2022/03/28 08:04:50;;;;;;;0.00;0.00;;;6.40;99.90;;;;;;5043774;28;20033;-66
2022/03/28 08:07:16;;;;;;;0.00;0.00;;;6.40;99.90;;;;;;5044213;28;20191;-67
2022/03/28 08:09:42;;;;;;;0.00;0.00;;;6.40;99.90;;;;;;5043590;28;20385;-66
2022/03/28 08:12:09;;;;;;;0.00;0.00;;;6.30;99.90;;;;;;5043974;28;20053;-66
2022/03/28 08:14:36;;;;;;;0.00;0.00;;;6.40;99.90;;;;;;5044200;28;20117;-66
2022/03/28 08:17:04;;;;;;;0.00;0.00;;;6.40;99.90;;;;;;5044041;28;20053;-66
2022/03/28 08:19:29;;;;;;;0.00;0.00;;;6.30;99.90;;;;;;5043416;28;20470;-66
2022/03/28 08:21:55;;;;;;;0.00;0.00;;;6.40;99.90;;;;;;5043675;28;20137;-66
2022/03/28 08:24:21;;;;;;;0.00;0.00;;;6.40;99.90;;;;;;5043856;28;20047;-66
2022/03/28 08:26:49;;;;;;;0.00;0.00;;;6.50;99.90;;;;;;5025540;28;20086;-66
2022/03/28 08:29:15;;;;;;;0.00;0.00;;;6.50;99.90;;;;;;5044067;28;20049;-66
2022/03/28 08:31:41;;;;;;;0.00;0.00;;;6.50;99.90;;;;;;5043760;28;20042;-66
2022/03/28 08:34:07;;;;;;;0.00;0.00;;;6.40;99.90;;;;;;5043068;28;20128;-66
2022/03/28 08:36:34;;;;;;;0.00;0.00;;;6.40;99.90;;;;;;5044444;28;20484;-66
2022/03/28 08:39:00;;;;;;;0.00;0.00;;;7.50;99.90;;;;;;5043908;28;20051;-67
2022/03/28 08:41:26;;;;;;;0.00;0.00;;;6.40;99.90;;;;;;5025949;28;20045;-67
2022/03/28 08:43:52;;;;;;;0.00;0.00;;;6.70;99.90;;;;;;5042818;28;20056;-67
2022/03/28 08:46:18;;;;;;;0.00;0.00;;;6.80;99.90;;;;;;5043646;28;20120;-67
2022/03/28 08:48:44;;;;;;;0.00;0.00;;;6.80;99.90;;;;;;5025319;28;20128;-65
2022/03/28 08:51:13;;;;;;;0.00;0.00;;;6.80;99.90;;;;;;5042939;28;20045;-66
2022/03/28 08:53:39;;;;;;;0.10;0.10;;;6.80;99.90;;;;;;5042758;28;20045;-65
2022/03/28 08:56:07;;;;;;;0.00;0.00;;;6.80;99.90;;;;;;5044056;28;20040;-62
2022/03/28 08:58:33;;;;;;;0.00;0.00;;;6.60;99.90;;;;;;5043638;28;20049;-65
2022/03/28 09:01:00;;;;;;;0.00;0.00;;;6.60;99.90;;;;;;5044960;28;20048;-66
2022/03/28 09:03:41;;;;;;;0.00;0.00;;;6.70;99.90;;;;;;5038072;28;20553;-65
2022/03/28 09:06:32;;;;;;;0.00;0.00;;;7.00;99.90;;;;;;5042092;28;20053;-64
2022/03/28 09:09:12;;;;;;;0.00;0.00;;;6.90;99.90;;;;;;5042890;28;20518;-65
2022/03/28 09:11:38;;;;;;;0.00;0.00;;;7.00;99.90;;;;;;5024732;28;20052;-65
2022/03/28 09:14:04;;;;;;;0.00;0.00;;;6.90;99.90;;;;;;5042078;28;20460;-65
2022/03/28 09:16:34;;;;;;;0.00;0.00;;;7.00;99.90;;;;;;5043528;28;20128;-65
2022/03/28 09:19:10;;;;;;;0.00;0.00;;;7.10;99.90;;;;;;5052007;28;20052;-64
2022/03/28 09:21:36;;;;;;;0.00;0.00;;;7.20;99.90;;;;;;5042575;28;20053;-64
2022/03/28 09:24:07;;;;;;;0.00;0.00;;;7.30;99.90;;;;;;5042940;28;20171;-65
2022/03/28 09:26:33;;;;;;;0.30;0.25;;;7.30;99.90;;;;;;5042083;28;20112;-65
2022/03/28 09:29:00;;;;;;;0.00;0.00;;;7.00;99.90;;;;;;5042951;28;20892;-65
2022/03/28 09:31:30;;;;;;;0.00;0.00;;;7.10;99.90;;;;;;5043346;28;20093;-64
2022/03/28 09:34:16;;;;;;;0.00;0.00;;;7.20;99.90;;;;;;5042114;28;20052;-65
2022/03/28 09:36:47;;;;;;;0.00;0.00;;;7.30;99.90;;;;;;5042701;28;20114;-64
2022/03/28 09:39:16;;;;;;;0.00;0.00;;;7.40;99.90;;;;;;5042496;28;20040;-65
2022/03/28 09:41:44;;;;;;;0.00;0.00;;;7.50;99.90;;;;;;5042045;28;20048;-65
2022/03/28 09:44:10;;;;;;;0.00;0.00;;;7.40;99.90;;;;;;5042810;28;20053;-65
2022/03/28 09:46:37;;;;;;;0.00;0.00;;;7.50;99.90;;;;;;5042781;28;20391;-63
2022/03/28 09:49:03;;;;;;;0.00;0.00;;;7.50;99.90;;;;;;5041780;28;20968;-67
2022/03/28 09:51:32;;;;;;;0.00;0.00;;;8.10;99.90;;;;;;5043107;28;20040;-67
2022/03/28 09:53:58;;;;;;;0.00;0.00;;;7.70;99.90;;;;;;5042182;28;20131;-66
2022/03/28 09:56:25;;;;;;;0.00;0.00;;;7.80;99.90;;;;;;5042921;28;20140;-67
2022/03/28 09:59:04;;;;;;;0.00;0.00;;;7.70;99.90;;;;;;5024049;28;20041;-67
2022/03/28 10:01:32;;;;;;;0.00;0.00;;;7.80;99.90;;;;;;5045950;28;20404;-65
2022/03/28 10:04:06;;;;;;;0.00;0.00;;;7.80;99.90;;;;;;5048660;28;20049;-66
2022/03/28 10:06:33;;;;;;;0.00;0.00;;;7.80;99.90;;;;;;5042365;28;20061;-66
2022/03/28 10:08:59;;;;;;;0.00;0.00;;;7.90;99.90;;;;;;5024086;28;20130;-66
2022/03/28 10:11:26;;;;;;;0.00;0.00;;;8.10;99.90;;;;;;5042355;28;20051;-66
2022/03/28 10:13:52;;;;;;;0.00;0.00;;;7.70;99.90;;;;;;5041706;28;20151;-66
2022/03/28 10:16:18;;;;;;;0.00;0.00;;;7.70;99.90;;;;;;5024514;28;20049;-66
2022/03/28 10:18:45;;;;;;;0.00;0.00;;;8.40;99.90;;;;;;5041382;28;20549;-62
2022/03/28 10:21:15;;;;;;;0.00;0.00;;;8.30;99.90;;;;;;5040898;28;20076;-66
2022/03/28 10:23:54;;;;;;;0.00;0.00;;;9.10;99.90;;;;;;5038611;28;20127;-66
2022/03/28 10:26:25;;;;;;;0.00;0.00;;;9.00;99.90;;;;;;5041742;28;20646;-66
2022/03/28 10:29:07;;;;;;;0.00;0.00;;;9.00;99.90;;;;;;5040866;28;20048;-66
2022/03/28 10:31:52;;;;;;;0.00;0.00;;;8.90;99.90;;;;;;5024416;28;20045;-66
2022/03/28 10:34:41;;;;;;;0.00;0.00;;;9.00;99.90;;;;;;5040777;28;20124;-66
2022/03/28 10:37:28;;;;;;;0.00;0.00;;;8.90;99.90;;;;;;5041827;28;20458;-66
2022/03/28 10:40:23;;;;;;;0.10;0.10;;;8.90;99.90;;;;;;5040496;28;20276;-66
2022/03/28 10:43:11;;;;;;;0.00;0.00;;;8.90;99.90;;;;;;5041445;28;20045;-66
2022/03/28 10:45:47;;;;;;;0.00;0.00;;;8.90;99.90;;;;;;5040494;28;20438;-66
2022/03/28 10:48:13;;;;;;;0.00;0.00;;;9.00;99.90;;;;;;5041802;28;20649;-66
2022/03/28 10:50:53;;;;;;;0.00;0.00;;;9.20;99.90;;;;;;5040770;28;20084;-65
2022/03/28 10:53:39;;;;;;;0.00;0.00;;;9.70;99.90;;;;;;5023542;28;20179;-66
2022/03/28 10:56:13;;;;;;;0.00;0.00;;;9.00;99.90;;;;;;5041623;28;20084;-66
2022/03/28 10:58:41;;;;;;;0.00;0.00;;;9.10;99.90;;;;;;5040592;28;20103;-64
2022/03/28 11:01:13;;;;;;;0.00;0.00;;;9.30;99.90;;;;;;5040055;28;20166;-66
2022/03/28 11:03:44;;;;;;;0.00;0.00;;;9.10;99.90;;;;;;5051601;28;20037;-66
2022/03/28 11:06:11;;;;;;;0.00;0.00;;;9.20;99.90;;;;;;5023045;28;20099;-66
2022/03/28 11:08:39;;;;;;;0.00;0.00;;;10.20;99.90;;;;;;5041347;28;20068;-66
2022/03/28 11:11:26;;;;;;;0.00;0.00;;;9.20;99.90;;;;;;5041584;28;20037;-67
2022/03/28 11:14:04;;;;;;;0.00;0.00;;;9.10;99.90;;;;;;5041277;28;20088;-66
2022/03/28 11:16:48;;;;;;;0.00;0.00;;;9.20;99.90;;;;;;5044026;28;20052;-66
2022/03/28 11:19:43;;;;;;;0.00;0.00;;;9.20;99.90;;;;;;5026466;28;20454;-66
2022/03/28 11:22:09;;;;;;;;;;;9.20;99.90;;;;;;5027259;28;20597;-66
2022/03/28 11:24:54;;;;;;;0.00;0.00;;;9.30;99.90;;;;;;5045422;28;19921;-65
2022/03/28 11:27:21;;;;;;;;;;;10.70;99.90;;;;;;5028153;28;20444;-66
2022/03/28 11:29:47;;;;;;;0.00;0.00;;;9.60;99.90;;;;;;5044119;28;19921;-64
2022/03/28 11:32:18;;;;;;;0.00;0.00;;;10.50;99.90;;;;;;5045118;28;20102;-64
2022/03/28 11:34:54;;;;;;;0.45;0.45;;;9.80;99.90;;;;;;5043492;28;20048;-64
2022/03/28 11:37:28;;;;;;;0.00;0.00;;;9.80;99.90;;;;;;5044943;28;20128;-64
2022/03/28 11:40:04;;;;;;;0.00;0.00;;;10.10;99.90;;;;;;5043283;28;20064;-64
2022/03/28 11:42:32;;;;;;;0.00;0.00;;;10.10;99.90;;;;;;5043055;28;20120;-64
2022/03/28 11:45:09;;;;;;;0.00;0.00;;;10.00;99.90;;;;;;5044606;28;20045;-64
2022/03/28 11:47:37;;;;;;;0.00;0.00;;;10.20;99.90;;;;;;5044582;28;20123;-65
2022/03/28 11:50:07;;;;;;;0.00;0.00;;;10.10;99.90;;;;;;5026008;28;20049;-65
2022/03/28 11:52:34;;;;;;;0.00;0.00;;;10.30;99.90;;;;;;5043707;28;20041;-65
2022/03/28 11:54:59;;;;;;;0.00;0.00;;;10.60;99.90;;;;;;5044270;28;20102;-64
2022/03/28 12:00:22;;;;;;;0.00;0.00;;;10.50;99.90;;;;;;5026685;28;20139;-65
2022/03/28 12:02:55;;;;;;;0.00;0.00;;;10.70;99.90;;;;;;5054811;28;20048;-64
2022/03/28 12:05:41;;;;;;;0.00;0.00;;;10.80;99.90;;;;;;5043019;28;20053;-64
2022/03/28 12:08:15;;;;;;;0.00;0.00;;;11.00;99.90;;;;;;5044004;28;20056;-64
2022/03/28 12:10:51;;;;;;;0.00;0.00;;;11.20;99.90;;;;;;5042779;28;20111;-66
2022/03/28 12:13:19;;;;;;;0.00;0.00;;;11.40;99.90;;;;;;5050723;28;20071;-65
2022/03/28 12:15:47;;;;;;;0.00;0.00;;;11.00;99.90;;;;;;5024904;28;20045;-65
2022/03/28 12:18:15;;;;;;;0.00;0.00;;;11.10;99.90;;;;;;5046224;28;20472;-64
2022/03/28 12:20:46;;;;;;;0.00;0.00;;;11.30;99.90;;;;;;5062741;28;20105;-64
2022/03/28 12:23:14;;;;;;;0.00;0.00;;;11.20;99.90;;;;;;5045275;28;20048;-65
2022/03/28 12:25:44;;;;;;;0.00;0.00;;;11.40;99.90;;;;;;5063276;28;20052;-65
2022/03/28 12:28:15;;;;;;;0.00;0.00;;;11.70;99.90;;;;;;5063002;28;20047;-65
2022/03/28 12:30:46;;;;;;;0.00;0.00;;;11.50;99.90;;;;;;5055300;28;20748;-66
2022/03/28 12:33:15;;;;;;;0.00;0.00;;;11.50;99.90;;;;;;5043758;28;20473;-65
2022/03/28 12:35:43;;;;;;;0.00;0.00;;;11.50;99.90;;;;;;5024404;28;20060;-70
2022/03/28 12:38:15;;;;;;;0.00;0.00;;;11.60;99.90;;;;;;5042945;28;20120;-65
2022/03/28 12:40:44;;;;;;;0.00;0.00;;;11.50;99.90;;;;;;5061704;28;20106;-65
2022/03/28 12:43:13;;;;;;;0.00;0.00;;;11.80;99.90;;;;;;5063502;28;20040;-65
2022/03/28 12:45:40;;;;;;;0.00;0.00;;;11.70;99.90;;;;;;5062507;28;20423;-66
2022/03/28 12:48:07;;;;;;;0.00;0.00;;;11.70;99.90;;;;;;5062942;28;20046;-65
2022/03/28 12:50:34;;;;;;;0.00;0.00;;;11.60;99.90;;;;;;5062706;28;20407;-65
2022/03/28 12:53:14;;;;;;;0.00;0.00;;;11.50;99.90;;;;;;5045169;28;20055;-65
2022/03/28 12:55:43;;;;;;;0.00;0.00;;;11.50;99.90;;;;;;5062557;28;20059;-63
2022/03/28 12:58:10;;;;;;;0.00;0.00;;;11.50;99.90;;;;;;5063192;28;20119;-64
2022/03/28 13:00:36;;;;;;;0.00;0.00;;;11.40;99.90;;;;;;5061133;28;20053;-65
2022/03/28 13:03:02;;;;;;;0.00;0.00;;;11.20;99.90;;;;;;5054057;28;20040;-65
2022/03/28 13:05:30;;;;;;;0.00;0.00;;;11.20;99.90;;;;;;5043059;28;20068;-65